sensor_id;sensor_type;location;lat;lon;timestamp;pressure;altitude;pressure_sealevel;temperature;humidity
70343;BME280;57767;42.068;24.752;2023-02-07T00:00:41;100382.97;;;-0.44;51.99
70343;BME280;57767;42.068;24.752;2023-02-07T00:01:42;100383.06;;;-0.45;51.86
70343;BME280;57767;42.068;24.752;2023-02-07T00:02:46;100392.19;;;-0.52;52.21
70343;BME280;57767;42.068;24.752;2023-02-07T00:03:48;100394.47;;;-0.48;52.00
70343;BME280;57767;42.068;24.752;2023-02-07T00:04:51;100401.94;;;-0.43;51.95
70343;BME280;57767;42.068;24.752;2023-02-07T00:05:52;100395.94;;;-0.44;52.02
70343;BME280;57767;42.068;24.752;2023-02-07T00:06:54;100397.19;;;-0.37;52.69
70343;BME280;57767;42.068;24.752;2023-02-07T00:07:56;100393.75;;;-0.37;52.48
70343;BME280;57767;42.068;24.752;2023-02-07T00:08:59;100401.13;;;-0.44;52.24
70343;BME280;57767;42.068;24.752;2023-02-07T00:10:01;100398.44;;;-0.42;52.01
70343;BME280;57767;42.068;24.752;2023-02-07T00:11:08;100406.94;;;-0.40;51.79
70343;BME280;57767;42.068;24.752;2023-02-07T00:12:10;100382.09;;;-0.57;51.88
70343;BME280;57767;42.068;24.752;2023-02-07T00:13:11;100400.47;;;-0.47;51.92
70343;BME280;57767;42.068;24.752;2023-02-07T00:14:13;100407.78;;;-0.40;51.53
70343;BME280;57767;42.068;24.752;2023-02-07T00:15:15;100415.34;;;-0.37;52.28
70343;BME280;57767;42.068;24.752;2023-02-07T00:16:17;100416.91;;;-0.34;52.44
70343;BME280;57767;42.068;24.752;2023-02-07T00:17:20;100401.75;;;-0.40;52.49
70343;BME280;57767;42.068;24.752;2023-02-07T00:18:21;100404.97;;;-0.37;52.82
70343;BME280;57767;42.068;24.752;2023-02-07T00:19:23;100411.81;;;-0.36;52.75
70343;BME280;57767;42.068;24.752;2023-02-07T00:20:25;100409.22;;;-0.36;52.94
70343;BME280;57767;42.068;24.752;2023-02-07T00:21:28;100419.50;;;-0.34;53.03
70343;BME280;57767;42.068;24.752;2023-02-07T00:22:30;100418.78;;;-0.36;52.34
70343;BME280;57767;42.068;24.752;2023-02-07T00:23:32;100420.75;;;-0.40;52.07
70343;BME280;57767;42.068;24.752;2023-02-07T00:24:34;100419.66;;;-0.50;52.51
70343;BME280;57767;42.068;24.752;2023-02-07T00:25:36;100417.19;;;-0.78;52.23
70343;BME280;57767;42.068;24.752;2023-02-07T00:26:38;100422.94;;;-0.87;52.16
70343;BME280;57767;42.068;24.752;2023-02-07T00:27:40;100424.22;;;-1.07;52.66
70343;BME280;57767;42.068;24.752;2023-02-07T00:28:42;100421.16;;;-1.14;52.83
70343;BME280;57767;42.068;24.752;2023-02-07T00:29:44;100426.25;;;-1.26;53.51
70343;BME280;57767;42.068;24.752;2023-02-07T00:30:46;100423.78;;;-1.28;53.29
70343;BME280;57767;42.068;24.752;2023-02-07T00:31:48;100422.31;;;-1.32;53.62
70343;BME280;57767;42.068;24.752;2023-02-07T00:32:49;100428.16;;;-1.28;53.16
70343;BME280;57767;42.068;24.752;2023-02-07T00:33:54;100431.25;;;-1.23;53.33
70343;BME280;57767;42.068;24.752;2023-02-07T00:34:56;100412.13;;;-1.35;54.06
70343;BME280;57767;42.068;24.752;2023-02-07T00:35:59;100437.19;;;-1.21;53.90
70343;BME280;57767;42.068;24.752;2023-02-07T00:37:02;100428.06;;;-1.27;54.02
70343;BME280;57767;42.068;24.752;2023-02-07T00:38:05;100433.41;;;-1.30;54.30
70343;BME280;57767;42.068;24.752;2023-02-07T00:39:11;100433.03;;;-1.24;53.67
70343;BME280;57767;42.068;24.752;2023-02-07T00:40:13;100435.44;;;-1.21;53.71
70343;BME280;57767;42.068;24.752;2023-02-07T00:41:15;100436.19;;;-1.19;54.06
70343;BME280;57767;42.068;24.752;2023-02-07T00:42:19;100437.19;;;-1.21;54.10
70343;BME280;57767;42.068;24.752;2023-02-07T00:43:21;100431.75;;;-1.17;54.45
70343;BME280;57767;42.068;24.752;2023-02-07T00:44:30;100439.69;;;-1.20;54.58
70343;BME280;57767;42.068;24.752;2023-02-07T00:45:33;100438.94;;;-1.22;54.60
70343;BME280;57767;42.068;24.752;2023-02-07T00:46:35;100432.66;;;-1.18;53.94
70343;BME280;57767;42.068;24.752;2023-02-07T00:47:37;100435.06;;;-1.15;54.23
70343;BME280;57767;42.068;24.752;2023-02-07T00:48:39;100432.34;;;-1.13;55.19
70343;BME280;57767;42.068;24.752;2023-02-07T00:49:41;100435.06;;;-1.15;54.33
70343;BME280;57767;42.068;24.752;2023-02-07T00:50:43;100442.03;;;-1.29;55.02
70343;BME280;57767;42.068;24.752;2023-02-07T00:51:44;100441.19;;;-1.30;54.89
70343;BME280;57767;42.068;24.752;2023-02-07T00:52:46;100442.84;;;-1.29;54.56
70343;BME280;57767;42.068;24.752;2023-02-07T00:53:48;100439.44;;;-1.43;55.04
70343;BME280;57767;42.068;24.752;2023-02-07T00:54:50;100436.56;;;-1.53;54.87
70343;BME280;57767;42.068;24.752;2023-02-07T00:55:52;100445.91;;;-1.51;55.04
70343;BME280;57767;42.068;24.752;2023-02-07T00:56:53;100448.59;;;-1.52;55.35
70343;BME280;57767;42.068;24.752;2023-02-07T00:57:55;100436.28;;;-1.49;54.90
70343;BME280;57767;42.068;24.752;2023-02-07T00:58:57;100437.94;;;-1.48;55.17
70343;BME280;57767;42.068;24.752;2023-02-07T00:59:59;100438.59;;;-1.44;55.02
70343;BME280;57767;42.068;24.752;2023-02-07T01:01:01;100435.09;;;-1.43;55.61
70343;BME280;57767;42.068;24.752;2023-02-07T01:02:03;100432.31;;;-1.40;55.51
70343;BME280;57767;42.068;24.752;2023-02-07T01:03:05;100398.25;;;-1.62;55.26
70343;BME280;57767;42.068;24.752;2023-02-07T01:04:06;100436.53;;;-1.39;54.74
70343;BME280;57767;42.068;24.752;2023-02-07T01:05:08;100424.06;;;-1.47;54.68
70343;BME280;57767;42.068;24.752;2023-02-07T01:06:10;100436.38;;;-1.50;54.54
70343;BME280;57767;42.068;24.752;2023-02-07T01:07:12;100435.19;;;-1.59;54.34
70343;BME280;57767;42.068;24.752;2023-02-07T01:08:14;100438.25;;;-1.52;54.74
70343;BME280;57767;42.068;24.752;2023-02-07T01:09:16;100435.25;;;-1.60;55.16
70343;BME280;57767;42.068;24.752;2023-02-07T01:10:19;100420.38;;;-1.71;54.98
70343;BME280;57767;42.068;24.752;2023-02-07T01:11:21;100438.25;;;-1.66;55.27
70343;BME280;57767;42.068;24.752;2023-02-07T01:12:23;100430.47;;;-1.66;55.19
70343;BME280;57767;42.068;24.752;2023-02-07T01:13:24;100430.66;;;-1.69;54.77
70343;BME280;57767;42.068;24.752;2023-02-07T01:14:26;100412.88;;;-1.75;54.73
70343;BME280;57767;42.068;24.752;2023-02-07T01:15:28;100428.59;;;-1.64;54.96
70343;BME280;57767;42.068;24.752;2023-02-07T01:16:32;100420.66;;;-1.61;54.87
70343;BME280;57767;42.068;24.752;2023-02-07T01:17:34;100419.81;;;-1.62;54.79
70343;BME280;57767;42.068;24.752;2023-02-07T01:18:36;100422.41;;;-1.62;55.04
70343;BME280;57767;42.068;24.752;2023-02-07T01:19:38;100415.66;;;-1.64;55.08
70343;BME280;57767;42.068;24.752;2023-02-07T01:20:40;100404.00;;;-1.71;54.89
70343;BME280;57767;42.068;24.752;2023-02-07T01:21:42;100414.00;;;-1.65;55.01
70343;BME280;57767;42.068;24.752;2023-02-07T01:22:44;100426.00;;;-1.64;54.94
70343;BME280;57767;42.068;24.752;2023-02-07T01:23:46;100404.38;;;-1.77;55.16
70343;BME280;57767;42.068;24.752;2023-02-07T01:24:48;100416.03;;;-1.70;55.35
70343;BME280;57767;42.068;24.752;2023-02-07T01:25:49;100420.19;;;-1.68;55.36
70343;BME280;57767;42.068;24.752;2023-02-07T01:26:51;100412.25;;;-1.79;54.92
70343;BME280;57767;42.068;24.752;2023-02-07T01:27:53;100415.09;;;-1.84;55.47
70343;BME280;57767;42.068;24.752;2023-02-07T01:28:55;100413.25;;;-1.82;55.49
70343;BME280;57767;42.068;24.752;2023-02-07T01:29:57;100417.22;;;-1.76;55.24
70343;BME280;57767;42.068;24.752;2023-02-07T01:30:59;100423.22;;;-1.61;55.88
70343;BME280;57767;42.068;24.752;2023-02-07T01:32:01;100409.38;;;-1.60;55.55
70343;BME280;57767;42.068;24.752;2023-02-07T01:33:03;100413.44;;;-1.56;56.10
70343;BME280;57767;42.068;24.752;2023-02-07T01:34:04;100412.03;;;-1.48;56.33
70343;BME280;57767;42.068;24.752;2023-02-07T01:35:06;100418.63;;;-1.42;55.63
70343;BME280;57767;42.068;24.752;2023-02-07T01:36:10;100414.19;;;-1.40;55.53
70343;BME280;57767;42.068;24.752;2023-02-07T01:37:13;100412.53;;;-1.41;54.56
70343;BME280;57767;42.068;24.752;2023-02-07T01:38:14;100411.19;;;-1.34;55.09
70343;BME280;57767;42.068;24.752;2023-02-07T01:39:16;100404.34;;;-1.35;55.52
70343;BME280;57767;42.068;24.752;2023-02-07T01:40:18;100409.91;;;-1.27;55.10
70343;BME280;57767;42.068;24.752;2023-02-07T01:41:21;100415.28;;;-1.30;53.53
70343;BME280;57767;42.068;24.752;2023-02-07T01:42:26;100414.44;;;-1.30;53.65
70343;BME280;57767;42.068;24.752;2023-02-07T01:43:28;100409.53;;;-1.35;53.21
70343;BME280;57767;42.068;24.752;2023-02-07T01:45:39;100417.31;;;-1.49;53.53
70343;BME280;57767;42.068;24.752;2023-02-07T01:46:41;100409.66;;;-1.65;53.37
70343;BME280;57767;42.068;24.752;2023-02-07T01:47:44;100406.94;;;-1.63;53.61
70343;BME280;57767;42.068;24.752;2023-02-07T01:48:46;100408.16;;;-1.69;53.50
70343;BME280;57767;42.068;24.752;2023-02-07T01:49:50;100376.44;;;-1.87;53.44
70343;BME280;57767;42.068;24.752;2023-02-07T01:50:54;100406.41;;;-1.68;53.63
70343;BME280;57767;42.068;24.752;2023-02-07T01:52:03;100406.59;;;-1.71;53.88
70343;BME280;57767;42.068;24.752;2023-02-07T01:53:08;100404.84;;;-1.71;53.47
70343;BME280;57767;42.068;24.752;2023-02-07T01:54:12;100392.16;;;-1.75;54.13
70343;BME280;57767;42.068;24.752;2023-02-07T01:55:18;100397.44;;;-1.63;53.78
70343;BME280;57767;42.068;24.752;2023-02-07T01:56:23;100389.28;;;-1.71;53.09
70343;BME280;57767;42.068;24.752;2023-02-07T01:57:32;100385.88;;;-1.71;53.07
70343;BME280;57767;42.068;24.752;2023-02-07T01:58:35;100408.25;;;-1.56;53.97
70343;BME280;57767;42.068;24.752;2023-02-07T01:59:38;100404.09;;;-1.59;53.88
70343;BME280;57767;42.068;24.752;2023-02-07T02:00:45;100405.59;;;-1.55;53.21
70343;BME280;57767;42.068;24.752;2023-02-07T02:01:47;100360.38;;;-1.92;52.37
70343;BME280;57767;42.068;24.752;2023-02-07T02:02:49;100399.84;;;-1.74;52.70
70343;BME280;57767;42.068;24.752;2023-02-07T02:03:54;100403.44;;;-1.62;52.56
70343;BME280;57767;42.068;24.752;2023-02-07T02:04:57;100403.44;;;-1.62;52.77
70343;BME280;57767;42.068;24.752;2023-02-07T02:05:59;100404.09;;;-1.59;53.24
70343;BME280;57767;42.068;24.752;2023-02-07T02:07:01;100400.94;;;-1.64;52.70
70343;BME280;57767;42.068;24.752;2023-02-07T02:08:04;100403.00;;;-1.69;52.01
70343;BME280;57767;42.068;24.752;2023-02-07T02:09:09;100399.19;;;-1.63;52.16
70343;BME280;57767;42.068;24.752;2023-02-07T02:10:16;100406.41;;;-1.68;52.77
70343;BME280;57767;42.068;24.752;2023-02-07T02:15:17;100408.25;;;-1.56;52.67
70343;BME280;57767;42.068;24.752;2023-02-07T02:28:16;100419.53;;;-1.15;54.08
70343;BME280;57767;42.068;24.752;2023-02-07T02:33:11;100415.75;;;-0.96;54.53
70343;BME280;57767;42.068;24.752;2023-02-07T02:37:43;100414.00;;;-0.96;53.56
70343;BME280;57767;42.068;24.752;2023-02-07T02:38:56;100416.69;;;-0.97;53.11
70343;BME280;57767;42.068;24.752;2023-02-07T02:40:06;100415.03;;;-0.98;53.64
70343;BME280;57767;42.068;24.752;2023-02-07T02:41:13;100394.88;;;-1.08;52.51
70343;BME280;57767;42.068;24.752;2023-02-07T02:43:41;100417.44;;;-0.95;52.74
70343;BME280;57767;42.068;24.752;2023-02-07T02:45:35;100402.16;;;-1.00;53.59
70343;BME280;57767;42.068;24.752;2023-02-07T02:46:21;100420.75;;;-0.93;53.96
70343;BME280;57767;42.068;24.752;2023-02-07T02:47:26;100425.75;;;-0.90;54.48
70343;BME280;57767;42.068;24.752;2023-02-07T02:48:30;100419.44;;;-0.86;54.54
70343;BME280;57767;42.068;24.752;2023-02-07T02:49:33;100417.75;;;-0.87;54.16
70343;BME280;57767;42.068;24.752;2023-02-07T02:50:37;100419.53;;;-0.88;53.54
70343;BME280;57767;42.068;24.752;2023-02-07T02:51:39;100421.75;;;-0.82;53.55
70343;BME280;57767;42.068;24.752;2023-02-07T02:52:41;100423.69;;;-0.85;53.69
70343;BME280;57767;42.068;24.752;2023-02-07T02:53:56;100428.44;;;-0.92;53.82
70343;BME280;57767;42.068;24.752;2023-02-07T02:54:58;100416.31;;;-0.91;54.33
70343;BME280;57767;42.068;24.752;2023-02-07T02:56:17;100418.16;;;-0.93;53.85
70343;BME280;57767;42.068;24.752;2023-02-07T03:01:56;100419.13;;;-1.09;55.22
70343;BME280;57767;42.068;24.752;2023-02-07T03:08:59;100425.63;;;-1.30;55.24
70343;BME280;57767;42.068;24.752;2023-02-07T03:11:15;100424.56;;;-1.40;55.80
70343;BME280;57767;42.068;24.752;2023-02-07T03:15:03;100422.88;;;-1.55;55.25
70343;BME280;57767;42.068;24.752;2023-02-07T03:16:12;100420.66;;;-1.61;55.60
70343;BME280;57767;42.068;24.752;2023-02-07T03:17:21;100419.38;;;-1.68;56.04
70343;BME280;57767;42.068;24.752;2023-02-07T03:18:47;100414.75;;;-1.77;55.41
70343;BME280;57767;42.068;24.752;2023-02-07T03:20:05;100426.38;;;-1.70;55.23
70343;BME280;57767;42.068;24.752;2023-02-07T03:22:37;100420.56;;;-1.74;55.28
70343;BME280;57767;42.068;24.752;2023-02-07T03:23:42;100417.03;;;-1.73;55.38
70343;BME280;57767;42.068;24.752;2023-02-07T03:24:49;100425.38;;;-1.68;55.06
70343;BME280;57767;42.068;24.752;2023-02-07T03:25:53;100421.28;;;-1.72;54.71
70343;BME280;57767;42.068;24.752;2023-02-07T03:27:00;100423.44;;;-1.78;55.06
70343;BME280;57767;42.068;24.752;2023-02-07T03:28:03;100423.88;;;-1.72;54.96
70343;BME280;57767;42.068;24.752;2023-02-07T03:29:07;100410.66;;;-1.82;54.46
70343;BME280;57767;42.068;24.752;2023-02-07T03:30:12;100424.63;;;-1.70;54.12
70343;BME280;57767;42.068;24.752;2023-02-07T03:31:16;100414.94;;;-1.66;53.83
70343;BME280;57767;42.068;24.752;2023-02-07T03:32:20;100419.06;;;-1.64;53.72
70343;BME280;57767;42.068;24.752;2023-02-07T03:33:22;100418.44;;;-1.67;53.86
70343;BME280;57767;42.068;24.752;2023-02-07T03:34:43;100420.03;;;-1.65;53.95
70343;BME280;57767;42.068;24.752;2023-02-07T03:36:01;100417.13;;;-1.60;53.82
70343;BME280;57767;42.068;24.752;2023-02-07T03:37:11;100418.16;;;-1.63;53.75
70343;BME280;57767;42.068;24.752;2023-02-07T03:38:17;100409.44;;;-1.62;53.72
70343;BME280;57767;42.068;24.752;2023-02-07T03:39:19;100417.53;;;-1.52;53.89
70343;BME280;57767;42.068;24.752;2023-02-07T03:40:28;100418.72;;;-1.43;53.60
70343;BME280;57767;42.068;24.752;2023-02-07T03:41:37;100421.13;;;-1.40;53.66
70343;BME280;57767;42.068;24.752;2023-02-07T03:43:45;100429.50;;;-1.23;53.43
70343;BME280;57767;42.068;24.752;2023-02-07T03:44:48;100429.97;;;-1.16;53.44
70343;BME280;57767;42.068;24.752;2023-02-07T03:45:51;100430.50;;;-1.11;53.55
70343;BME280;57767;42.068;24.752;2023-02-07T03:46:53;100428.47;;;-1.06;54.01
70343;BME280;57767;42.068;24.752;2023-02-07T03:47:55;100423.94;;;-1.02;53.43
70343;BME280;57767;42.068;24.752;2023-02-07T03:48:57;100420.09;;;-0.97;54.41
70343;BME280;57767;42.068;24.752;2023-02-07T03:49:58;100422.44;;;-0.92;54.45
70343;BME280;57767;42.068;24.752;2023-02-07T03:51:00;100428.13;;;-0.87;53.85
70343;BME280;57767;42.068;24.752;2023-02-07T03:52:02;100424.84;;;-0.89;54.20
70343;BME280;57767;42.068;24.752;2023-02-07T03:53:04;100416.31;;;-0.91;54.54
70343;BME280;57767;42.068;24.752;2023-02-07T03:54:06;100410.47;;;-0.95;54.20
70343;BME280;57767;42.068;24.752;2023-02-07T03:55:08;100427.84;;;-0.83;54.62
70343;BME280;57767;42.068;24.752;2023-02-07T03:56:10;100431.94;;;-0.79;54.40
70343;BME280;57767;42.068;24.752;2023-02-07T03:57:12;100421.66;;;-0.80;54.35
70343;BME280;57767;42.068;24.752;2023-02-07T03:58:14;100434.22;;;-0.74;54.58
70343;BME280;57767;42.068;24.752;2023-02-07T03:59:15;100430.50;;;-0.70;54.86
70343;BME280;57767;42.068;24.752;2023-02-07T04:00:17;100431.34;;;-0.69;54.34
70343;BME280;57767;42.068;24.752;2023-02-07T04:01:19;100425.78;;;-0.63;54.31
70343;BME280;57767;42.068;24.752;2023-02-07T04:02:21;100422.53;;;-0.67;54.69
70343;BME280;57767;42.068;24.752;2023-02-07T04:03:23;100425.66;;;-0.62;54.26
70343;BME280;57767;42.068;24.752;2023-02-07T04:04:25;100424.72;;;-0.61;53.96
70343;BME280;57767;42.068;24.752;2023-02-07T04:05:27;100412.91;;;-0.65;53.71
70343;BME280;57767;42.068;24.752;2023-02-07T04:06:29;100422.13;;;-0.61;53.72
70343;BME280;57767;42.068;24.752;2023-02-07T04:07:30;100433.97;;;-0.57;53.99
70343;BME280;57767;42.068;24.752;2023-02-07T04:08:32;100426.19;;;-0.57;53.22
70343;BME280;57767;42.068;24.752;2023-02-07T04:09:34;100427.13;;;-0.58;53.76
70343;BME280;57767;42.068;24.752;2023-02-07T04:10:36;100425.47;;;-0.59;53.28
70343;BME280;57767;42.068;24.752;2023-02-07T04:11:37;100427.31;;;-0.61;53.72
70343;BME280;57767;42.068;24.752;2023-02-07T04:12:39;100429.53;;;-0.55;53.72
70343;BME280;57767;42.068;24.752;2023-02-07T04:13:41;100429.63;;;-0.56;53.17
70343;BME280;57767;42.068;24.752;2023-02-07T04:14:43;100434.53;;;-0.52;53.49
70343;BME280;57767;42.068;24.752;2023-02-07T04:15:44;100426.47;;;-0.61;53.81
70343;BME280;57767;42.068;24.752;2023-02-07T04:16:47;100427.13;;;-0.58;53.21
70343;BME280;57767;42.068;24.752;2023-02-07T04:17:49;100434.72;;;-0.55;53.12
70343;BME280;57767;42.068;24.752;2023-02-07T04:18:51;100418.00;;;-0.63;53.05
70343;BME280;57767;42.068;24.752;2023-02-07T04:19:53;100437.50;;;-0.58;53.11
70343;BME280;57767;42.068;24.752;2023-02-07T04:21:02;100434.16;;;-0.60;53.39
70343;BME280;57767;42.068;24.752;2023-02-07T04:22:05;100437.50;;;-0.58;53.38
70343;BME280;57767;42.068;24.752;2023-02-07T04:23:06;100433.44;;;-0.62;53.06
70343;BME280;57767;42.068;24.752;2023-02-07T04:24:08;100441.75;;;-0.57;52.78
70343;BME280;57767;42.068;24.752;2023-02-07T04:25:10;100446.31;;;-0.60;53.63
70343;BME280;57767;42.068;24.752;2023-02-07T04:26:12;100445.38;;;-0.59;53.38
70343;BME280;57767;42.068;24.752;2023-02-07T04:27:14;100441.75;;;-0.57;53.93
70343;BME280;57767;42.068;24.752;2023-02-07T04:28:16;100437.41;;;-0.56;54.13
70343;BME280;57767;42.068;24.752;2023-02-07T04:29:18;100453.81;;;-0.56;54.19
70343;BME280;57767;42.068;24.752;2023-02-07T04:30:19;100441.75;;;-0.57;53.91
70343;BME280;57767;42.068;24.752;2023-02-07T04:31:21;100449.25;;;-0.52;54.16
70343;BME280;57767;42.068;24.752;2023-02-07T04:32:23;100449.16;;;-0.51;54.91
70343;BME280;57767;42.068;24.752;2023-02-07T04:33:25;100445.75;;;-0.51;55.04
70343;BME280;57767;42.068;24.752;2023-02-07T04:34:26;100448.34;;;-0.51;54.88
70343;BME280;57767;42.068;24.752;2023-02-07T04:35:28;100440.84;;;-0.56;54.94
70343;BME280;57767;42.068;24.752;2023-02-07T04:36:30;100455.16;;;-0.50;54.76
70343;BME280;57767;42.068;24.752;2023-02-07T04:37:32;100448.22;;;-0.50;54.89
70343;BME280;57767;42.068;24.752;2023-02-07T04:38:34;100456.81;;;-0.49;54.52
70343;BME280;57767;42.068;24.752;2023-02-07T04:39:35;100455.06;;;-0.49;53.74
70343;BME280;57767;42.068;24.752;2023-02-07T04:40:37;100453.63;;;-0.53;54.41
70343;BME280;57767;42.068;24.752;2023-02-07T04:41:39;100461.91;;;-0.48;54.15
70343;BME280;57767;42.068;24.752;2023-02-07T04:42:41;100465.25;;;-0.46;53.65
70343;BME280;57767;42.068;24.752;2023-02-07T04:43:43;100458.50;;;-0.48;53.62
70343;BME280;57767;42.068;24.752;2023-02-07T04:44:44;100463.59;;;-0.47;53.93
70343;BME280;57767;42.068;24.752;2023-02-07T04:45:46;100465.25;;;-0.46;53.69
70343;BME280;57767;42.068;24.752;2023-02-07T04:46:48;100452.69;;;-0.52;53.17
70343;BME280;57767;42.068;24.752;2023-02-07T04:47:50;100459.22;;;-0.46;53.42
70343;BME280;57767;42.068;24.752;2023-02-07T04:48:52;100451.75;;;-0.51;53.92
70343;BME280;57767;42.068;24.752;2023-02-07T04:49:54;100457.47;;;-0.46;53.93
70343;BME280;57767;42.068;24.752;2023-02-07T04:50:55;100461.91;;;-0.48;53.51
70343;BME280;57767;42.068;24.752;2023-02-07T04:51:59;100464.88;;;-0.40;53.48
70343;BME280;57767;42.068;24.752;2023-02-07T04:53:01;100467.47;;;-0.40;53.47
70343;BME280;57767;42.068;24.752;2023-02-07T04:54:03;100454.44;;;-0.52;53.35
70343;BME280;57767;42.068;24.752;2023-02-07T04:55:05;100464.72;;;-0.51;53.30
70343;BME280;57767;42.068;24.752;2023-02-07T04:56:07;100465.66;;;-0.52;52.87
70343;BME280;57767;42.068;24.752;2023-02-07T04:57:09;100475.63;;;-0.46;52.55
70343;BME280;57767;42.068;24.752;2023-02-07T04:58:10;100476.38;;;-0.44;52.93
70343;BME280;57767;42.068;24.752;2023-02-07T04:59:12;100466.19;;;-0.47;52.99
70343;BME280;57767;42.068;24.752;2023-02-07T05:00:14;100471.56;;;-0.50;52.51
70343;BME280;57767;42.068;24.752;2023-02-07T05:01:16;100476.66;;;-0.48;52.50
70343;BME280;57767;42.068;24.752;2023-02-07T05:02:18;100477.81;;;-0.52;52.77
70343;BME280;57767;42.068;24.752;2023-02-07T05:03:20;100468.53;;;-0.56;52.84
70343;BME280;57767;42.068;24.752;2023-02-07T05:04:22;100471.22;;;-0.58;52.78
70343;BME280;57767;42.068;24.752;2023-02-07T05:05:24;100473.91;;;-0.59;52.87
70343;BME280;57767;42.068;24.752;2023-02-07T05:06:26;100481.41;;;-0.55;53.21
70343;BME280;57767;42.068;24.752;2023-02-07T05:07:28;100484.19;;;-0.58;53.60
70343;BME280;57767;42.068;24.752;2023-02-07T05:08:29;100480.13;;;-0.62;53.52
70343;BME280;57767;42.068;24.752;2023-02-07T05:09:31;100486.97;;;-0.61;53.76
70343;BME280;57767;42.068;24.752;2023-02-07T05:10:33;100485.53;;;-0.65;52.73
70343;BME280;57767;42.068;24.752;2023-02-07T05:11:35;100484.78;;;-0.67;53.57
70343;BME280;57767;42.068;24.752;2023-02-07T05:12:37;100478.84;;;-0.69;53.52
70343;BME280;57767;42.068;24.752;2023-02-07T05:13:39;100493.69;;;-0.71;53.92
70343;BME280;57767;42.068;24.752;2023-02-07T05:14:41;100493.72;;;-0.85;53.36
70343;BME280;57767;42.068;24.752;2023-02-07T05:15:42;100494.00;;;-0.90;53.60
70343;BME280;57767;42.068;24.752;2023-02-07T05:16:44;100489.84;;;-0.92;53.17
70343;BME280;57767;42.068;24.752;2023-02-07T05:17:46;100490.38;;;-0.87;53.87
70343;BME280;57767;42.068;24.752;2023-02-07T05:18:48;100494.44;;;-0.83;54.59
70343;BME280;57767;42.068;24.752;2023-02-07T05:19:49;100492.41;;;-0.78;54.29
70343;BME280;57767;42.068;24.752;2023-02-07T05:20:52;100490.38;;;-0.87;53.68
70343;BME280;57767;42.068;24.752;2023-02-07T05:21:54;100481.41;;;-0.96;53.63
70343;BME280;57767;42.068;24.752;2023-02-07T05:22:55;100489.53;;;-0.88;53.54
70343;BME280;57767;42.068;24.752;2023-02-07T05:23:57;100494.72;;;-0.88;53.90
70343;BME280;57767;42.068;24.752;2023-02-07T05:24:59;100494.09;;;-0.91;54.21
70343;BME280;57767;42.068;24.752;2023-02-07T05:26:01;100499.63;;;-0.83;53.73
70343;BME280;57767;42.068;24.752;2023-02-07T05:27:03;100496.13;;;-0.82;54.05
70343;BME280;57767;42.068;24.752;2023-02-07T05:28:04;100497.03;;;-0.83;53.64
70343;BME280;57767;42.068;24.752;2023-02-07T05:29:06;100487.50;;;-0.83;53.90
70343;BME280;57767;42.068;24.752;2023-02-07T05:30:09;100487.59;;;-0.84;53.81
70343;BME280;57767;42.068;24.752;2023-02-07T05:31:11;100494.91;;;-0.77;52.93
70343;BME280;57767;42.068;24.752;2023-02-07T05:32:13;100495.63;;;-0.75;53.49
70343;BME280;57767;42.068;24.752;2023-02-07T05:33:34;100491.50;;;-0.77;53.27
70343;BME280;57767;42.068;24.752;2023-02-07T05:34:36;100490.44;;;-0.75;53.59
70343;BME280;57767;42.068;24.752;2023-02-07T05:35:43;100498.78;;;-0.69;53.87
70343;BME280;57767;42.068;24.752;2023-02-07T05:36:46;100496.94;;;-0.82;53.40
70343;BME280;57767;42.068;24.752;2023-02-07T05:37:47;100497.44;;;-0.89;53.69
70343;BME280;57767;42.068;24.752;2023-02-07T05:38:49;100503.72;;;-0.93;53.40
70343;BME280;57767;42.068;24.752;2023-02-07T05:39:51;100484.94;;;-1.11;54.21
70343;BME280;57767;42.068;24.752;2023-02-07T05:40:53;100491.13;;;-1.14;53.73
70343;BME280;57767;42.068;24.752;2023-02-07T05:41:55;100505.41;;;-1.21;54.27
70343;BME280;57767;42.068;24.752;2023-02-07T05:42:57;100507.16;;;-1.21;54.42
70343;BME280;57767;42.068;24.752;2023-02-07T05:43:58;100511.34;;;-1.19;54.46
70343;BME280;57767;42.068;24.752;2023-02-07T05:45:00;100511.78;;;-1.12;54.31
70343;BME280;57767;42.068;24.752;2023-02-07T05:46:02;100492.00;;;-1.27;54.42
70343;BME280;57767;42.068;24.752;2023-02-07T05:47:04;100497.63;;;-1.21;54.70
70343;BME280;57767;42.068;24.752;2023-02-07T05:48:06;100510.94;;;-1.13;54.87
70343;BME280;57767;42.068;24.752;2023-02-07T05:49:07;100516.13;;;-1.13;54.19
70343;BME280;57767;42.068;24.752;2023-02-07T05:50:09;100504.56;;;-1.07;54.18
70343;BME280;57767;42.068;24.752;2023-02-07T05:51:11;100518.53;;;-0.95;55.58
70343;BME280;57767;42.068;24.752;2023-02-07T05:52:13;100500.56;;;-0.98;54.75
70343;BME280;57767;42.068;24.752;2023-02-07T05:53:15;100519.28;;;-0.93;54.92
70343;BME280;57767;42.068;24.752;2023-02-07T05:54:17;100514.00;;;-0.92;55.16
70343;BME280;57767;42.068;24.752;2023-02-07T05:55:18;100514.84;;;-0.91;55.18
70343;BME280;57767;42.068;24.752;2023-02-07T05:56:20;100491.22;;;-1.01;54.92
70343;BME280;57767;42.068;24.752;2023-02-07T05:57:22;100519.47;;;-0.82;55.12
70343;BME280;57767;42.068;24.752;2023-02-07T05:58:24;100522.97;;;-0.83;55.07
70343;BME280;57767;42.068;24.752;2023-02-07T05:59:26;100522.78;;;-0.80;55.20
70343;BME280;57767;42.068;24.752;2023-02-07T06:00:28;100522.69;;;-0.79;54.74
70343;BME280;57767;42.068;24.752;2023-02-07T06:01:29;100525.91;;;-0.75;54.59
70343;BME280;57767;42.068;24.752;2023-02-07T06:02:31;100527.59;;;-0.74;54.48
70343;BME280;57767;42.068;24.752;2023-02-07T06:03:33;100524.81;;;-0.71;54.56
70343;BME280;57767;42.068;24.752;2023-02-07T06:04:35;100522.78;;;-0.80;54.82
70343;BME280;57767;42.068;24.752;2023-02-07T06:05:36;100517.88;;;-0.85;54.59
70343;BME280;57767;42.068;24.752;2023-02-07T06:06:38;100526.66;;;-0.87;54.87
70343;BME280;57767;42.068;24.752;2023-02-07T06:07:42;100528.56;;;-0.89;55.11
70343;BME280;57767;42.068;24.752;2023-02-07T06:08:45;100523.91;;;-0.98;55.23